createdAt,value
2022-11-27T00:00:56.708Z,11.04
2022-11-27T00:03:23.308Z,10.89
2022-11-27T00:05:57.899Z,10.65
2022-11-27T00:08:24.946Z,10.65
2022-11-27T00:10:51.511Z,10.65
2022-11-27T00:13:18.056Z,10.87
2022-11-27T00:15:44.887Z,10.62
2022-11-27T00:18:12.215Z,10.93
2022-11-27T00:20:38.816Z,10.79
2022-11-27T00:23:05.303Z,10.62
2022-11-27T00:25:32.398Z,10.96
2022-11-27T00:27:58.930Z,10.80
2022-11-27T00:30:25.364Z,10.96
2022-11-27T00:32:51.819Z,10.72
2022-11-27T00:35:18.339Z,10.71
2022-11-27T00:37:44.801Z,10.58
2022-11-27T00:40:11.556Z,10.28
2022-11-27T00:42:38.051Z,10.28
2022-11-27T00:45:04.679Z,10.34
2022-11-27T00:47:31.134Z,10.57
2022-11-27T00:49:57.799Z,10.24
2022-11-27T00:52:24.235Z,10.37
2022-11-27T00:54:50.868Z,10.20
2022-11-27T00:57:17.306Z,10.54
2022-11-27T00:59:43.776Z,10.59
2022-11-27T01:02:10.244Z,10.17
2022-11-27T01:04:36.981Z,10.24
2022-11-27T01:07:03.562Z,10.33
2022-11-27T01:09:30.061Z,10.39
2022-11-27T01:11:56.469Z,10.63
2022-11-27T01:14:22.949Z,10.63
2022-11-27T01:16:49.424Z,10.24
2022-11-27T01:19:16.359Z,10.66
2022-11-27T01:21:43.004Z,10.64
2022-11-27T01:24:11.121Z,10.40
2022-11-27T01:26:37.560Z,10.62
2022-11-27T01:29:04.055Z,10.42
2022-11-27T01:31:32.413Z,10.22
2022-11-27T01:34:01.875Z,9.78
2022-11-27T01:36:29.279Z,9.89
2022-11-27T01:38:55.784Z,9.98
2022-11-27T01:41:36.219Z,9.73
2022-11-27T01:44:24.106Z,9.55
2022-11-27T01:46:53.736Z,9.33
2022-11-27T01:49:34.234Z,9.36
2022-11-27T01:52:03.719Z,9.52
2022-11-27T01:54:38.989Z,9.65
2022-11-27T01:57:13.611Z,9.30
2022-11-27T01:59:40.958Z,9.43
2022-11-27T02:02:07.558Z,8.93
2022-11-27T02:04:34.127Z,9.27
2022-11-27T02:07:00.812Z,9.54
2022-11-27T02:09:28.346Z,9.27
2022-11-27T02:12:11.199Z,9.44
2022-11-27T02:14:50.402Z,8.96
2022-11-27T02:17:20.956Z,9.31
2022-11-27T02:20:06.202Z,9.35
2022-11-27T02:22:38.630Z,9.14
2022-11-27T02:25:11.136Z,9.26
2022-11-27T02:28:39.445Z,9.15
2022-11-27T02:31:10.984Z,9.26
2022-11-27T02:33:41.797Z,9.42
2022-11-27T02:36:19.524Z,9.28
2022-11-27T02:38:56.204Z,9.26
2022-11-27T02:41:27.648Z,9.36
2022-11-27T02:43:54.776Z,9.31
2022-11-27T02:46:21.614Z,9.33
2022-11-27T02:48:54.794Z,9.29
2022-11-27T02:51:25.736Z,8.89
2022-11-27T02:53:55.103Z,9.24
2022-11-27T02:56:24.651Z,9.25
2022-11-27T02:58:51.827Z,9.13
2022-11-27T03:01:19.166Z,9.03
2022-11-27T03:03:48.090Z,8.93
2022-11-27T03:06:19.371Z,9.24
2022-11-27T03:08:51.303Z,8.98
2022-11-27T03:11:17.875Z,8.90
2022-11-27T03:13:48.659Z,8.92
2022-11-27T03:16:34.852Z,8.88
2022-11-27T03:19:19.409Z,8.85
2022-11-27T03:21:50.556Z,8.84
2022-11-27T03:24:17.457Z,8.95
2022-11-27T03:26:44.013Z,8.77
2022-11-27T03:29:49.820Z,8.90
2022-11-27T03:32:16.745Z,8.83
2022-11-27T03:34:43.478Z,8.87
2022-11-27T03:37:10.162Z,8.64
2022-11-27T03:39:36.883Z,8.66
2022-11-27T03:42:41.939Z,8.51
2022-11-27T03:45:22.203Z,8.52
2022-11-27T03:48:18.381Z,8.42
2022-11-27T03:51:00.139Z,8.38
2022-11-27T03:53:57.785Z,8.30
2022-11-27T03:56:38.451Z,8.27
2022-11-27T03:59:09.984Z,8.28
2022-11-27T04:01:36.682Z,8.16
2022-11-27T04:04:03.434Z,8.27
2022-11-27T04:06:29.922Z,8.31
2022-11-27T04:08:56.355Z,8.31
2022-11-27T04:11:22.804Z,8.18
2022-11-27T04:13:49.255Z,8.07
2022-11-27T04:16:15.842Z,8.27
2022-11-27T04:18:42.307Z,7.97
2022-11-27T04:21:08.792Z,7.92
2022-11-27T04:23:35.267Z,8.08
2022-11-27T04:26:02.030Z,8.02
2022-11-27T04:28:28.571Z,7.99
2022-11-27T04:30:55.047Z,8.06
2022-11-27T04:33:21.925Z,8.09
2022-11-27T04:35:48.996Z,8.01
2022-11-27T04:38:15.444Z,7.80
2022-11-27T04:40:41.908Z,7.74
2022-11-27T04:43:08.364Z,7.88
2022-11-27T04:45:34.871Z,7.73
2022-11-27T04:48:01.334Z,7.88
2022-11-27T04:50:27.848Z,7.92
2022-11-27T04:52:54.333Z,7.76
2022-11-27T04:55:20.801Z,8.02
2022-11-27T04:57:47.266Z,7.88
2022-11-27T05:00:14.122Z,7.89
2022-11-27T05:02:40.734Z,7.87
2022-11-27T05:05:07.608Z,7.81
2022-11-27T05:07:34.187Z,7.92
2022-11-27T05:10:00.694Z,7.85
2022-11-27T05:12:27.163Z,7.84
2022-11-27T05:14:53.588Z,7.67
2022-11-27T05:17:20.047Z,7.74
2022-11-27T05:19:46.478Z,7.66
2022-11-27T05:22:12.938Z,7.64
2022-11-27T05:24:39.604Z,7.69
2022-11-27T05:27:06.243Z,7.67
2022-11-27T05:29:32.712Z,7.46
2022-11-27T05:31:59.170Z,7.56
2022-11-27T05:34:25.610Z,7.39
2022-11-27T05:36:52.077Z,7.51
2022-11-27T05:39:18.552Z,7.23
2022-11-27T05:41:45.067Z,7.63
2022-11-27T05:44:15.436Z,7.32
2022-11-27T05:46:45.822Z,7.42
2022-11-27T05:49:14.358Z,7.37
2022-11-27T05:51:44.129Z,7.36
2022-11-27T05:54:12.912Z,7.32
2022-11-27T05:56:39.399Z,7.14
2022-11-27T05:59:05.913Z,6.93
2022-11-27T06:01:32.478Z,7.28
2022-11-27T06:03:58.939Z,7.32
2022-11-27T06:06:25.420Z,7.14
2022-11-27T06:08:51.881Z,7.13
2022-11-27T06:11:20.972Z,7.18
2022-11-27T06:13:48.537Z,6.98
2022-11-27T06:16:22.535Z,7.18
2022-11-27T06:18:51.239Z,6.85
2022-11-27T06:21:17.821Z,6.92
2022-11-27T06:23:44.648Z,6.84
2022-11-27T06:26:19.983Z,7.04
2022-11-27T06:28:47.258Z,7.06
2022-11-27T06:31:18.308Z,6.97
2022-11-27T06:33:46.287Z,7.04
2022-11-27T06:36:12.727Z,6.73
2022-11-27T06:38:39.298Z,6.90
2022-11-27T06:41:11.542Z,6.89
2022-11-27T06:43:38.577Z,6.90
2022-11-27T06:46:06.935Z,7.19
2022-11-27T06:48:34.296Z,6.99
2022-11-27T06:51:02.172Z,7.12
2022-11-27T06:53:29.753Z,6.89
2022-11-27T06:55:56.760Z,7.26
2022-11-27T06:58:29.345Z,6.61
2022-11-27T07:00:59.020Z,6.80
2022-11-27T07:03:25.963Z,6.53
2022-11-27T07:05:52.577Z,7.00
2022-11-27T07:08:19.075Z,7.18
2022-11-27T07:10:45.592Z,6.99
2022-11-27T07:13:12.058Z,7.38
2022-11-27T07:15:38.486Z,6.92
2022-11-27T07:18:04.992Z,6.88
2022-11-27T07:20:32.247Z,6.94
2022-11-27T07:22:58.730Z,6.42
2022-11-27T07:25:25.192Z,6.85
2022-11-27T07:27:51.661Z,7.04
2022-11-27T07:30:18.273Z,7.28
2022-11-27T07:32:44.736Z,7.10
2022-11-27T07:35:11.315Z,7.12
2022-11-27T07:37:37.831Z,6.93
2022-11-27T07:40:05.147Z,6.81
2022-11-27T07:42:39.439Z,7.18
2022-11-27T07:45:08.268Z,6.88
2022-11-27T07:47:34.754Z,6.77
2022-11-27T07:50:01.335Z,7.18
2022-11-27T07:52:27.880Z,7.25
2022-11-27T07:54:54.455Z,7.10
2022-11-27T07:57:21.049Z,6.84
2022-11-27T07:59:47.898Z,6.79
2022-11-27T08:02:14.876Z,7.15
2022-11-27T08:04:41.625Z,6.88
2022-11-27T08:07:08.421Z,7.03
2022-11-27T08:09:34.895Z,7.66
2022-11-27T08:12:01.374Z,7.45
2022-11-27T08:14:27.885Z,7.51
2022-11-27T08:16:54.421Z,7.21
2022-11-27T08:19:21.023Z,6.98
2022-11-27T08:21:47.496Z,7.37
2022-11-27T08:24:13.974Z,6.94
2022-11-27T08:26:40.476Z,7.16
2022-11-27T08:29:07.278Z,6.97
2022-11-27T08:31:34.057Z,6.68
2022-11-27T08:34:00.643Z,7.17
2022-11-27T08:36:27.279Z,7.29
2022-11-27T08:38:55.112Z,6.89
2022-11-27T08:41:22.002Z,7.14
2022-11-27T08:43:48.458Z,7.04
2022-11-27T08:46:15.049Z,7.34
2022-11-27T08:48:42.077Z,7.10
2022-11-27T08:51:10.999Z,7.11
2022-11-27T08:53:38.076Z,7.42
2022-11-27T08:56:14.199Z,7.37
2022-11-27T08:58:41.210Z,7.42
2022-11-27T09:01:12.673Z,7.46
2022-11-27T09:03:39.419Z,7.10
2022-11-27T09:06:07.728Z,7.30
2022-11-27T09:08:34.185Z,7.21
2022-11-27T09:11:01.484Z,7.17
2022-11-27T09:13:27.951Z,6.82
2022-11-27T09:15:56.576Z,7.46
2022-11-27T09:18:23.426Z,7.29
2022-11-27T09:20:58.095Z,7.12
2022-11-27T09:23:24.670Z,7.37
2022-11-27T09:25:51.196Z,7.43
2022-11-27T09:28:17.704Z,7.80
2022-11-27T09:30:44.320Z,7.82
2022-11-27T09:33:10.868Z,8.01
2022-11-27T09:35:38.266Z,7.78
2022-11-27T09:38:04.806Z,7.66
2022-11-27T09:40:31.360Z,7.28
2022-11-27T09:43:02.946Z,8.03
2022-11-27T09:45:29.693Z,7.78
2022-11-27T09:47:59.303Z,7.87
2022-11-27T09:50:29.006Z,8.04
2022-11-27T09:53:00.114Z,7.81
2022-11-27T09:55:34.133Z,7.71
2022-11-27T09:58:26.898Z,7.48
2022-11-27T10:00:53.409Z,7.43
2022-11-27T10:03:27.418Z,7.87
2022-11-27T10:06:15.817Z,8.22
2022-11-27T10:08:55.402Z,7.69
2022-11-27T10:11:40.351Z,7.68
2022-11-27T10:14:34.064Z,7.80
2022-11-27T10:17:06.500Z,7.38
2022-11-27T10:19:42.782Z,7.97
2022-11-27T10:22:29.763Z,7.56
2022-11-27T10:25:02.307Z,7.61
2022-11-27T10:27:38.644Z,7.77
2022-11-27T10:30:17.266Z,7.63
2022-11-27T10:32:55.049Z,7.71
2022-11-27T10:35:24.478Z,8.06
2022-11-27T10:38:06.518Z,7.70
2022-11-27T10:40:46.248Z,8.24
2022-11-27T10:43:20.280Z,8.20
2022-11-27T10:46:08.057Z,8.05
2022-11-27T10:48:34.625Z,8.23
2022-11-27T10:51:01.296Z,8.04
2022-11-27T10:53:32.264Z,8.48
2022-11-27T10:56:05.523Z,8.25
2022-11-27T10:58:41.974Z,8.08
2022-11-27T11:01:09.757Z,8.32
2022-11-27T11:03:36.887Z,8.58
2022-11-27T11:06:23.213Z,8.59
2022-11-27T11:09:13.161Z,8.16
2022-11-27T11:11:39.861Z,8.46
2022-11-27T11:14:16.936Z,8.30
2022-11-27T11:16:45.072Z,8.31
2022-11-27T11:19:22.434Z,8.24
2022-11-27T11:21:49.140Z,8.50
2022-11-27T11:24:24.979Z,8.77
2022-11-27T11:26:59.267Z,8.50
2022-11-27T11:29:40.233Z,8.33
2022-11-27T11:32:20.470Z,8.85
2022-11-27T11:35:10.518Z,8.74
2022-11-27T11:37:44.988Z,8.34
2022-11-27T11:40:16.548Z,8.66
2022-11-27T11:42:58.593Z,8.41
2022-11-27T11:45:31.256Z,8.57
2022-11-27T11:48:02.541Z,8.46
2022-11-27T11:50:45.381Z,8.70
2022-11-27T11:53:34.110Z,8.60
2022-11-27T11:56:22.784Z,8.68
2022-11-27T11:59:02.947Z,8.87
2022-11-27T12:01:36.598Z,8.74
2022-11-27T12:04:21.445Z,8.82
2022-11-27T12:07:09.503Z,8.58
2022-11-27T12:09:42.064Z,8.83
2022-11-27T12:12:20.972Z,8.93
2022-11-27T12:14:50.677Z,9.09
2022-11-27T12:17:41.454Z,8.79
2022-11-27T12:20:14.753Z,8.72
2022-11-27T12:23:06.036Z,8.70
2022-11-27T12:26:11.599Z,9.16
2022-11-27T12:29:03.878Z,8.91
2022-11-27T12:31:39.530Z,9.22
2022-11-27T12:34:24.127Z,9.03
2022-11-27T12:37:14.364Z,8.80
2022-11-27T12:39:49.779Z,8.86
2022-11-27T12:42:24.172Z,8.64
2022-11-27T12:44:57.186Z,8.77
2022-11-27T12:47:40.208Z,8.84
2022-11-27T12:50:30.408Z,9.00
2022-11-27T12:53:11.574Z,8.62
2022-11-27T12:55:39.563Z,8.82
2022-11-27T12:58:10.750Z,8.53
2022-11-27T13:00:41.263Z,8.59
2022-11-27T13:03:18.634Z,8.89
2022-11-27T13:06:03.577Z,8.92
2022-11-27T13:08:48.339Z,8.90
2022-11-27T13:11:19.471Z,9.00
2022-11-27T13:13:49.119Z,8.89
2022-11-27T13:16:25.412Z,8.97
2022-11-27T13:18:55.253Z,9.10
2022-11-27T13:21:28.316Z,8.96
2022-11-27T13:23:54.993Z,9.01
2022-11-27T13:26:26.653Z,8.93
2022-11-27T13:28:56.390Z,8.96
2022-11-27T13:31:28.607Z,8.95
2022-11-27T13:34:00.856Z,8.98
2022-11-27T13:36:46.225Z,9.31
2022-11-27T13:39:24.646Z,9.28
2022-11-27T13:42:00.725Z,8.99
2022-11-27T13:44:29.028Z,8.94
2022-11-27T13:46:58.755Z,8.92
2022-11-27T13:49:28.547Z,8.63
2022-11-27T13:52:27.954Z,8.78
2022-11-27T13:54:59.250Z,8.94
2022-11-27T13:57:27.406Z,8.52
2022-11-27T14:00:05.201Z,8.84
2022-11-27T14:02:48.536Z,8.94
2022-11-27T14:05:18.146Z,8.91
2022-11-27T14:07:49.887Z,9.00
2022-11-27T14:10:18.144Z,8.61
2022-11-27T14:12:53.529Z,8.49
2022-11-27T14:15:25.632Z,8.55
2022-11-27T14:17:55.227Z,8.80
2022-11-27T14:20:28.217Z,8.59
2022-11-27T14:23:13.490Z,8.74
2022-11-27T14:25:40.916Z,8.36
2022-11-27T14:28:21.384Z,8.45
2022-11-27T14:30:50.440Z,8.35
2022-11-27T14:33:28.249Z,8.38
2022-11-27T14:35:57.034Z,8.57
2022-11-27T14:38:24.856Z,8.51
2022-11-27T14:40:55.818Z,8.72
2022-11-27T14:43:26.006Z,8.43
2022-11-27T14:45:55.474Z,8.47
2022-11-27T14:48:24.302Z,8.33
2022-11-27T14:50:51.471Z,8.58
2022-11-27T14:53:19.980Z,8.59
2022-11-27T14:55:49.302Z,8.61
2022-11-27T14:58:22.693Z,8.57
2022-11-27T15:00:59.423Z,8.42
2022-11-27T15:03:26.377Z,8.18
2022-11-27T15:05:54.914Z,8.36
2022-11-27T15:08:21.567Z,8.34
2022-11-27T15:10:48.114Z,8.36
2022-11-27T15:13:22.852Z,8.27
2022-11-27T15:16:02.580Z,8.23
2022-11-27T15:18:29.826Z,8.18
2022-11-27T15:20:57.517Z,8.31
2022-11-27T15:23:27.920Z,8.61
2022-11-27T15:26:00.728Z,8.44
2022-11-27T15:28:34.033Z,8.35
2022-11-27T15:31:01.113Z,8.60
2022-11-27T15:33:32.936Z,8.51
2022-11-27T15:36:41.986Z,8.17
2022-11-27T15:39:21.639Z,8.32
2022-11-27T15:41:54.187Z,8.57
2022-11-27T15:44:20.975Z,8.46
2022-11-27T15:46:47.586Z,8.69
2022-11-27T15:49:15.224Z,8.57
2022-11-27T15:51:42.319Z,8.65
2022-11-27T15:54:08.905Z,8.79
2022-11-27T15:56:35.419Z,8.33
2022-11-27T15:59:01.878Z,8.59
2022-11-27T16:01:28.368Z,8.45
2022-11-27T16:03:55.795Z,8.51
2022-11-27T16:06:24.644Z,8.45
2022-11-27T16:08:58.911Z,8.51
2022-11-27T16:11:26.651Z,8.59
2022-11-27T16:13:53.105Z,8.43
2022-11-27T16:16:20.138Z,8.18
2022-11-27T16:18:46.756Z,8.50
2022-11-27T16:21:15.403Z,8.54
2022-11-27T16:23:42.141Z,8.55
2022-11-27T16:26:11.592Z,8.39
2022-11-27T16:28:38.055Z,8.46
2022-11-27T16:31:08.637Z,8.17
2022-11-27T16:33:35.124Z,8.19
2022-11-27T16:36:09.988Z,8.20
2022-11-27T16:38:36.694Z,8.05
2022-11-27T16:41:05.736Z,8.28
2022-11-27T16:43:35.284Z,8.53
2022-11-27T16:46:07.355Z,8.03
2022-11-27T16:48:35.531Z,8.19
2022-11-27T16:51:04.718Z,8.00
2022-11-27T16:53:31.327Z,8.33
2022-11-27T16:55:57.791Z,8.15
2022-11-27T16:58:24.615Z,8.12
2022-11-27T17:00:51.208Z,8.22
2022-11-27T17:03:17.855Z,7.94
2022-11-27T17:05:48.757Z,8.09
2022-11-27T17:08:17.835Z,7.94
2022-11-27T17:10:45.950Z,7.97
2022-11-27T17:13:12.543Z,8.08
2022-11-27T17:15:40.753Z,8.19
2022-11-27T17:18:07.417Z,8.02
2022-11-27T17:20:33.857Z,8.00
2022-11-27T17:23:00.503Z,8.27
2022-11-27T17:25:27.036Z,7.84
2022-11-27T17:27:53.511Z,7.94
2022-11-27T17:30:19.969Z,7.61
2022-11-27T17:32:46.393Z,7.55
2022-11-27T17:35:13.054Z,7.54
2022-11-27T17:37:39.503Z,8.06
2022-11-27T17:40:06.756Z,8.06
2022-11-27T17:42:33.207Z,7.66
2022-11-27T17:44:59.663Z,7.87
2022-11-27T17:47:26.316Z,7.67
2022-11-27T17:49:52.763Z,7.52
2022-11-27T17:52:19.262Z,7.67
2022-11-27T17:54:45.705Z,7.68
2022-11-27T17:57:12.177Z,7.33
2022-11-27T17:59:38.841Z,7.23
2022-11-27T18:02:05.534Z,7.09
2022-11-27T18:04:32.386Z,7.55
2022-11-27T18:06:58.962Z,7.66
2022-11-27T18:09:25.459Z,7.59
2022-11-27T18:11:52.277Z,7.64
2022-11-27T18:14:18.761Z,7.35
2022-11-27T18:16:45.677Z,7.33
2022-11-27T18:19:12.309Z,7.63
2022-11-27T18:21:39.407Z,7.43
2022-11-27T18:24:23.553Z,7.42
2022-11-27T18:29:39.222Z,7.39
2022-11-27T18:32:06.326Z,7.68
2022-11-27T18:34:32.961Z,7.48
2022-11-27T18:37:03.635Z,8.15
2022-11-27T18:39:31.708Z,7.64
2022-11-27T18:41:58.855Z,7.64
2022-11-27T18:44:25.586Z,7.95
2022-11-27T18:46:52.184Z,7.73
2022-11-27T18:49:19.048Z,8.09
2022-11-27T18:51:45.604Z,8.07
2022-11-27T18:54:12.208Z,8.11
2022-11-27T18:56:38.861Z,7.90
2022-11-27T18:59:07.043Z,7.80
2022-11-27T19:01:41.600Z,7.84
2022-11-27T19:04:09.627Z,7.80
2022-11-27T19:06:37.573Z,8.11
2022-11-27T19:09:04.902Z,7.85
2022-11-27T19:11:32.837Z,7.73
2022-11-27T19:13:59.694Z,8.24
2022-11-27T19:16:38.616Z,8.15
2022-11-27T19:19:06.384Z,7.93
2022-11-27T19:21:34.050Z,8.15
2022-11-27T19:24:02.609Z,8.08
2022-11-27T19:26:32.031Z,7.83
2022-11-27T19:29:00.910Z,8.54
2022-11-27T19:31:27.749Z,8.27
2022-11-27T19:33:55.755Z,8.38
2022-11-27T19:36:23.223Z,8.24
2022-11-27T19:38:54.741Z,7.91
2022-11-27T19:41:21.589Z,7.63
2022-11-27T19:43:48.277Z,7.77
2022-11-27T19:46:15.084Z,8.02
2022-11-27T19:48:42.045Z,8.03
2022-11-27T19:51:10.138Z,8.13
2022-11-27T19:53:37.787Z,8.39
2022-11-27T19:56:05.594Z,8.50
2022-11-27T19:58:32.498Z,8.02
2022-11-27T20:01:10.660Z,8.07
2022-11-27T20:03:37.592Z,8.01
2022-11-27T20:06:06.695Z,7.92
2022-11-27T20:08:33.524Z,7.67
2022-11-27T20:11:00.957Z,8.06
2022-11-27T20:13:27.869Z,8.11
2022-11-27T20:15:55.538Z,8.07
2022-11-27T20:18:22.501Z,8.20
2022-11-27T20:20:49.208Z,7.65
2022-11-27T20:23:15.839Z,8.29
2022-11-27T20:25:42.758Z,8.21
2022-11-27T20:28:10.080Z,7.96
2022-11-27T20:30:38.884Z,8.04
2022-11-27T20:33:07.675Z,7.98
2022-11-27T20:35:34.685Z,7.94
2022-11-27T20:38:01.397Z,8.52
2022-11-27T20:40:28.520Z,8.33
2022-11-27T20:42:55.333Z,7.75
2022-11-27T20:45:21.979Z,7.63
2022-11-27T20:47:48.827Z,8.14
2022-11-27T20:50:15.466Z,7.60
2022-11-27T20:52:42.241Z,8.04
2022-11-27T20:55:09.223Z,8.11
2022-11-27T20:57:35.984Z,7.70
2022-11-27T21:00:02.681Z,8.01
2022-11-27T21:02:29.514Z,7.77
2022-11-27T21:04:56.284Z,7.31
2022-11-27T21:07:23.146Z,8.06
2022-11-27T21:09:49.906Z,7.75
2022-11-27T21:12:16.938Z,7.80
2022-11-27T21:14:44.485Z,8.18
2022-11-27T21:17:11.130Z,8.24
2022-11-27T21:19:37.875Z,7.94
2022-11-27T21:22:04.574Z,8.14
2022-11-27T21:24:31.383Z,7.91
2022-11-27T21:26:58.043Z,8.11
2022-11-27T21:29:27.887Z,7.81
2022-11-27T21:31:55.516Z,7.81
2022-11-27T21:34:22.883Z,7.79
2022-11-27T21:36:49.618Z,7.79
2022-11-27T21:39:20.521Z,7.87
2022-11-27T21:41:48.975Z,7.70
2022-11-27T21:44:17.766Z,7.80
2022-11-27T21:46:48.469Z,8.00
2022-11-27T21:49:16.492Z,8.39
2022-11-27T21:51:43.186Z,8.20
2022-11-27T21:54:12.774Z,7.96
2022-11-27T21:56:40.934Z,8.01
2022-11-27T21:59:09.564Z,7.83
2022-11-27T22:01:36.911Z,8.01
2022-11-27T22:04:03.675Z,8.07
2022-11-27T22:06:35.461Z,7.57
2022-11-27T22:09:02.299Z,7.89
2022-11-27T22:11:32.730Z,7.77
2022-11-27T22:14:02.371Z,7.87
2022-11-27T22:16:31.472Z,7.95
2022-11-27T22:18:59.180Z,8.15
2022-11-27T22:21:27.497Z,7.88
2022-11-27T22:23:54.418Z,7.72
2022-11-27T22:26:22.620Z,7.54
2022-11-27T22:28:50.238Z,7.82
2022-11-27T22:31:22.558Z,7.70
2022-11-27T22:33:49.588Z,7.77
2022-11-27T22:36:26.960Z,8.07
2022-11-27T22:38:54.891Z,8.04
2022-11-27T22:41:23.792Z,8.15
2022-11-27T22:43:50.862Z,7.76
2022-11-27T22:46:27.212Z,7.56
2022-11-27T22:49:00.552Z,7.80
2022-11-27T22:51:29.310Z,7.82
2022-11-27T22:53:56.493Z,8.22
2022-11-27T22:56:23.489Z,8.31
2022-11-27T22:58:58.225Z,8.28
2022-11-27T23:01:32.954Z,7.61
2022-11-27T23:04:01.279Z,7.62
2022-11-27T23:06:28.404Z,7.77
2022-11-27T23:08:55.297Z,7.79
2022-11-27T23:11:27.275Z,7.54
2022-11-27T23:13:56.303Z,8.02
2022-11-27T23:16:23.122Z,7.75
2022-11-27T23:18:50.986Z,8.08
2022-11-27T23:21:19.906Z,7.64
2022-11-27T23:23:47.185Z,7.72
2022-11-27T23:26:18.309Z,7.71
2022-11-27T23:28:45.544Z,7.27
2022-11-27T23:31:33.176Z,7.37
2022-11-27T23:34:02.086Z,7.77
2022-11-27T23:36:30.031Z,7.66
2022-11-27T23:38:56.631Z,7.72
2022-11-27T23:41:24.791Z,7.33
2022-11-27T23:43:52.504Z,7.72
2022-11-27T23:46:20.481Z,7.53
2022-11-27T23:48:47.380Z,7.51
2022-11-27T23:51:18.876Z,7.66
2022-11-27T23:53:46.533Z,7.53
2022-11-27T23:56:15.617Z,7.64
2022-11-27T23:58:46.734Z,7.68
